Terminal Aerodrome Forecast
Issued by NWS

Home | Current Version | Previous Version | Text Only | Print | Product List | Glossary On
Versions: 1 2 3 4 5 6 7 8 9 10 11 12 13 14 15 16 17 18
000
FTUS42 KTBW 251700
TAFRSW
TAF
KRSW 251734Z 2518/2618 36008KT P6SM BKN035
     FM260300 05006KT P6SM FEW070 SCT250
     FM260900 05008KT P6SM BKN090 BKN250=

USA.gov is the U.S. government's official web portal to all federal, state and local government web resources and services.